Time;durP1;ratioP1;P1;durP2;ratioP2;P2;SDS_P1;SDS_P2;PMS_P1;PMS_P2;Temp;Humidity;BMP_temperature;BMP_pressure;BME280_temperature;BME280_humidity;BME280_pressure;Samples;Min_cycle;Max_cycle;Signal;HPM_P1;HPM_P2
2023/05/10 00:02:00;;;;;;;11.03;9.77;;;;;;;14.89;100.00;98348.00;4969141;28;20227;-79
2023/05/10 00:04:29;;;;;;;10.60;9.23;;;;;;;14.91;100.00;98347.84;4967254;28;20248;-79
2023/05/10 00:06:58;;;;;;;11.47;10.27;;;;;;;14.84;100.00;98340.41;4964543;28;20286;-79
2023/05/10 00:09:28;;;;;;;9.80;8.80;;;;;;;14.86;100.00;98346.47;4974564;28;20188;-79
2023/05/10 00:12:09;;;;;;;5.17;4.73;;;;;;;14.30;100.00;98370.38;4968049;28;20219;-79
2023/05/10 00:14:39;;;;;;;3.10;2.80;;;;;;;14.16;100.00;98360.13;4972192;28;20215;-79
2023/05/10 00:17:13;;;;;;;1.80;1.43;;;;;;;14.04;100.00;98362.94;4968106;28;20200;-79
2023/05/10 00:19:46;;;;;;;1.90;1.70;;;;;;;13.91;100.00;98365.03;4967292;28;20207;-79
2023/05/10 00:22:16;;;;;;;2.80;1.47;;;;;;;13.89;100.00;98366.13;4973815;28;20208;-79
2023/05/10 00:24:46;;;;;;;3.10;1.37;;;;;;;13.92;100.00;98371.19;4970684;28;20219;-79
2023/05/10 00:27:20;;;;;;;2.63;1.60;;;;;;;13.84;100.00;98371.88;4966421;28;20199;-79
2023/05/10 00:29:52;;;;;;;3.50;1.30;;;;;;;13.84;100.00;98389.69;4970541;28;20215;-79
2023/05/10 00:32:23;;;;;;;1.50;1.03;;;;;;;13.91;100.00;98374.84;4967321;28;20204;-79
2023/05/10 00:34:51;;;;;;;3.20;1.20;;;;;;;13.81;100.00;98374.84;4969637;28;20391;-79
2023/05/10 00:37:20;;;;;;;1.37;1.27;;;;;;;13.83;100.00;98377.34;4966998;28;20254;-79
2023/05/10 00:39:48;;;;;;;2.37;1.20;;;;;;;13.87;100.00;98378.75;4965152;28;20212;-80
2023/05/10 00:42:17;;;;;;;2.57;1.53;;;;;;;13.73;100.00;98385.31;4969422;28;20211;-79
2023/05/10 00:44:46;;;;;;;1.10;1.00;;;;;;;13.74;100.00;98382.50;4960952;28;20294;-80
2023/05/10 00:47:15;;;;;;;1.80;1.10;;;;;;;13.78;100.00;98377.75;4967108;28;20196;-79
2023/05/10 00:49:45;;;;;;;1.13;0.90;;;;;;;13.65;100.00;98374.50;4962483;28;20737;-79
2023/05/10 00:52:14;;;;;;;1.00;0.70;;;;;;;13.54;100.00;98382.59;4967716;28;20231;-79
2023/05/10 00:54:43;;;;;;;1.50;0.93;;;;;;;13.56;100.00;98380.66;4967109;28;20204;-79
2023/05/10 00:57:12;;;;;;;0.80;0.70;;;;;;;13.45;100.00;98382.44;4963150;28;20635;-79
2023/05/10 00:59:40;;;;;;;2.90;0.80;;;;;;;13.45;100.00;98373.63;4962790;28;20610;-79
2023/05/10 01:02:08;;;;;;;0.70;0.60;;;;;;;13.42;100.00;98384.53;4969643;28;20232;-79
2023/05/10 01:04:39;;;;;;;1.50;0.70;;;;;;;13.43;100.00;98379.06;4970240;28;20482;-80
2023/05/10 01:07:08;;;;;;;1.10;0.60;;;;;;;13.40;100.00;98368.69;4971649;28;20218;-79
2023/05/10 01:09:37;;;;;;;2.10;0.50;;;;;;;13.38;100.00;98369.81;4966878;28;20258;-79
2023/05/10 01:12:07;;;;;;;0.83;0.50;;;;;;;13.34;100.00;98373.72;4967318;28;20204;-80
2023/05/10 01:14:36;;;;;;;1.33;0.50;;;;;;;13.29;100.00;98367.97;4965031;28;20261;-79
2023/05/10 01:17:06;;;;;;;2.30;0.50;;;;;;;13.38;100.00;98361.81;4970606;28;20211;-79
2023/05/10 01:19:37;;;;;;;2.83;0.60;;;;;;;13.17;100.00;98360.06;4970096;28;20203;-79
2023/05/10 01:22:19;;;;;;;0.50;0.50;;;;;;;13.19;100.00;98357.28;4967431;28;20306;-78
2023/05/10 01:25:15;;;;;;;1.30;0.40;;;;;;;13.15;100.00;98362.00;4971148;28;20686;-79
2023/05/10 01:27:57;;;;;;;4.37;0.63;;;;;;;13.16;100.00;98363.69;4973788;28;20382;-79
2023/05/10 01:30:56;;;;;;;2.20;0.40;;;;;;;13.25;100.00;98361.25;4967567;28;20274;-79
2023/05/10 01:33:30;;;;;;;1.13;0.50;;;;;;;13.16;100.00;98368.16;4968624;28;20262;-79
2023/05/10 01:36:08;;;;;;;0.40;0.40;;;;;;;13.12;100.00;98378.25;4966439;28;20225;-79
2023/05/10 01:38:43;;;;;;;0.40;0.40;;;;;;;13.12;100.00;98366.72;4975687;28;20234;-79
2023/05/10 01:41:18;;;;;;;1.00;0.50;;;;;;;13.09;100.00;98369.66;4971751;28;20199;-79
2023/05/10 01:43:55;;;;;;;1.00;0.40;;;;;;;13.18;100.00;98371.53;4974327;28;20289;-79
2023/05/10 01:46:30;;;;;;;1.70;0.60;;;;;;;13.16;100.00;98374.31;4977880;28;20209;-79
2023/05/10 01:49:01;;;;;;;2.40;0.50;;;;;;;13.22;100.00;98380.09;4973778;28;20655;-79
2023/05/10 01:51:42;;;;;;;0.60;0.53;;;;;;;13.25;100.00;98383.34;4973958;28;20213;-79
2023/05/10 01:54:14;;;;;;;1.87;0.53;;;;;;;13.20;100.00;98382.91;4977786;28;20656;-79
2023/05/10 01:56:45;;;;;;;1.73;0.60;;;;;;;13.22;100.00;98382.75;4977776;28;20199;-80
2023/05/10 01:59:18;;;;;;;0.80;0.60;;;;;;;13.12;100.00;98388.88;4974960;28;20230;-79
2023/05/10 02:01:50;;;;;;;1.50;0.60;;;;;;;13.01;100.00;98402.22;4972470;28;20262;-80
2023/05/10 02:04:26;;;;;;;0.87;0.63;;;;;;;13.10;100.00;98398.78;4967460;28;20238;-79
2023/05/10 02:06:58;;;;;;;0.70;0.70;;;;;;;13.16;100.00;98403.56;4976483;28;20282;-79
2023/05/10 02:09:30;;;;;;;1.83;0.57;;;;;;;13.07;100.00;98411.50;4974375;28;20200;-79
2023/05/10 02:12:02;;;;;;;2.00;0.60;;;;;;;13.10;100.00;98417.38;4974433;28;20203;-79
2023/05/10 02:14:36;;;;;;;1.10;0.83;;;;;;;13.01;100.00;98412.03;4969976;28;20259;-79
2023/05/10 02:17:06;;;;;;;0.70;0.70;;;;;;;12.87;100.00;98408.75;4977350;28;20254;-80
2023/05/10 02:19:38;;;;;;;0.70;0.70;;;;;;;13.02;100.00;98416.34;4969355;28;20643;-79
2023/05/10 02:22:09;;;;;;;0.77;0.70;;;;;;;12.90;100.00;98427.06;4966759;28;20204;-79
2023/05/10 02:24:39;;;;;;;1.63;0.60;;;;;;;12.91;100.00;98430.56;4966980;28;20255;-79
2023/05/10 02:27:10;;;;;;;1.67;0.80;;;;;;;12.80;100.00;98430.66;4974579;28;20187;-79
2023/05/10 02:29:40;;;;;;;0.77;0.50;;;;;;;12.88;100.00;98439.66;4970578;28;20208;-79
2023/05/10 02:32:11;;;;;;;2.57;0.70;;;;;;;12.73;100.00;98446.25;4967753;28;20199;-79
2023/05/10 02:34:51;;;;;;;2.20;0.67;;;;;;;12.87;100.00;98445.09;4972901;28;20202;-80
2023/05/10 02:37:20;;;;;;;1.17;0.70;;;;;;;12.74;100.00;98449.75;4971022;28;20219;-79
2023/05/10 02:39:51;;;;;;;2.10;0.70;;;;;;;12.83;100.00;98448.97;4969592;28;20254;-79
2023/05/10 02:42:23;;;;;;;1.03;0.60;;;;;;;12.79;100.00;98444.91;4969287;28;20207;-80
2023/05/10 02:44:56;;;;;;;0.73;0.73;;;;;;;12.79;100.00;98459.03;4970973;28;20219;-80
2023/05/10 02:47:25;;;;;;;1.10;0.80;;;;;;;12.83;100.00;98459.59;4973833;28;20188;-79
2023/05/10 02:49:55;;;;;;;1.03;0.97;;;;;;;12.91;100.00;98457.16;4968873;28;20258;-79
2023/05/10 02:52:28;;;;;;;0.77;0.67;;;;;;;12.75;100.00;98452.31;4963554;28;20212;-79
2023/05/10 02:55:02;;;;;;;1.67;1.00;;;;;;;12.90;100.00;98450.16;4974854;28;20199;-79
2023/05/10 02:57:34;;;;;;;1.80;1.00;;;;;;;13.08;100.00;98458.38;4973597;28;20282;-79
2023/05/10 03:00:03;;;;;;;0.80;0.70;;;;;;;12.87;100.00;98455.75;4973494;28;20203;-79
2023/05/10 03:02:31;;;;;;;4.27;1.00;;;;;;;12.92;100.00;98450.84;4976385;28;20707;-79
2023/05/10 03:05:02;;;;;;;0.70;0.70;;;;;;;12.94;100.00;98454.25;4963766;28;20232;-79
2023/05/10 03:07:30;;;;;;;1.07;0.80;;;;;;;12.84;100.00;98454.19;4973670;28;20206;-79
2023/05/10 03:09:59;;;;;;;1.80;0.90;;;;;;;12.95;100.00;98458.59;4976277;28;20255;-79
2023/05/10 03:12:40;;;;;;;1.87;0.90;;;;;;;12.79;100.00;98459.03;4972051;28;20295;-80
2023/05/10 03:15:15;;;;;;;2.57;0.90;;;;;;;12.75;100.00;98467.41;4974638;28;20206;-80
2023/05/10 03:17:48;;;;;;;0.70;0.70;;;;;;;12.73;100.00;98471.97;4970904;28;20252;-80
2023/05/10 03:20:25;;;;;;;1.27;0.80;;;;;;;12.69;100.00;98476.72;4969552;28;20226;-79
2023/05/10 03:23:01;;;;;;;1.03;0.80;;;;;;;12.72;100.00;98481.78;4971255;28;20663;-79
2023/05/10 03:25:32;;;;;;;3.10;1.10;;;;;;;12.72;100.00;98480.94;4973135;28;20218;-79
2023/05/10 03:28:02;;;;;;;3.67;1.50;;;;;;;12.71;100.00;98480.09;4967797;28;20203;-79
2023/05/10 03:30:31;;;;;;;1.33;1.23;;;;;;;12.79;100.00;98480.28;4969441;28;20207;-79
2023/05/10 03:33:05;;;;;;;1.90;1.43;;;;;;;12.89;100.00;98483.03;4970313;28;20263;-79
2023/05/10 03:35:35;;;;;;;1.57;1.47;;;;;;;12.76;100.00;98487.69;4970874;28;20227;-79
2023/05/10 03:38:04;;;;;;;1.77;1.47;;;;;;;12.81;100.00;98491.63;4973323;28;20200;-79
2023/05/10 03:40:33;;;;;;;6.03;1.80;;;;;;;12.97;100.00;98491.19;4976201;28;20196;-79
2023/05/10 03:43:02;;;;;;;2.20;2.00;;;;;;;12.89;100.00;98502.47;4971491;28;20207;-80
2023/05/10 03:45:30;;;;;;;3.53;2.00;;;;;;;12.78;100.00;98502.53;4918296;29;20246;-79
2023/05/10 03:47:59;;;;;;;3.43;1.83;;;;;;;12.81;100.00;98504.09;4915651;29;20708;-80
2023/05/10 03:50:27;;;;;;;2.43;2.00;;;;;;;12.84;100.00;98507.34;4906535;29;20214;-79
2023/05/10 03:52:57;;;;;;;2.90;2.40;;;;;;;12.68;100.00;98504.28;4915099;29;20684;-80
2023/05/10 03:55:25;;;;;;;2.63;2.43;;;;;;;12.75;100.00;98504.63;4912269;29;20198;-79
2023/05/10 03:57:53;;;;;;;2.33;2.10;;;;;;;12.82;100.00;98503.94;4913438;29;20277;-79
2023/05/10 04:00:22;;;;;;;2.60;2.40;;;;;;;13.01;100.00;98500.59;4912045;29;20249;-79
2023/05/10 04:02:50;;;;;;;5.20;2.23;;;;;;;12.96;100.00;98500.16;4913954;28;20294;-79
2023/05/10 04:05:19;;;;;;;2.53;2.30;;;;;;;12.78;100.00;98507.00;4970080;28;20234;-79
2023/05/10 04:07:49;;;;;;;3.37;2.20;;;;;;;12.89;100.00;98507.78;4968055;28;20215;-79
2023/05/10 04:10:19;;;;;;;3.90;2.43;;;;;;;12.93;100.00;98510.19;4972353;28;20207;-78
2023/05/10 04:12:47;;;;;;;4.53;2.30;;;;;;;12.77;100.00;98508.81;4968996;28;20670;-79
2023/05/10 04:15:16;;;;;;;3.73;2.47;;;;;;;12.81;100.00;98512.91;4969700;28;20196;-79
2023/05/10 04:17:44;;;;;;;2.33;2.00;;;;;;;12.76;100.00;98516.94;4912956;29;20745;-79
2023/05/10 04:20:13;;;;;;;2.20;2.00;;;;;;;12.75;100.00;98512.59;4907344;29;20210;-79
2023/05/10 04:22:41;;;;;;;5.47;2.13;;;;;;;12.81;100.00;98518.22;4873030;29;20290;-79
2023/05/10 04:25:10;;;;;;;2.90;2.20;;;;;;;12.74;100.00;98518.84;4869376;29;20214;-79
2023/05/10 04:27:40;;;;;;;3.23;2.00;;;;;;;12.96;100.00;98523.22;4872828;29;20259;-79
2023/05/10 04:30:09;;;;;;;2.00;1.80;;;;;;;12.86;100.00;98523.16;4872881;29;20203;-80
2023/05/10 04:32:37;;;;;;;4.37;2.33;;;;;;;12.82;100.00;98511.06;4866285;29;20256;-79
2023/05/10 04:35:07;;;;;;;4.03;2.10;;;;;;;12.89;100.00;98517.56;4887687;29;20208;-79
2023/05/10 04:37:36;;;;;;;3.37;2.30;;;;;;;12.73;100.00;98515.34;4926617;29;20197;-79
2023/05/10 04:40:06;;;;;;;3.07;2.30;;;;;;;12.74;100.00;98513.53;4935950;28;20200;-79
2023/05/10 04:42:34;;;;;;;2.63;2.30;;;;;;;12.72;100.00;98518.13;4961735;28;20208;-79
2023/05/10 04:45:05;;;;;;;3.60;2.47;;;;;;;12.70;100.00;98506.78;4964439;28;20203;-80
2023/05/10 04:47:33;;;;;;;5.00;2.90;;;;;;;12.74;100.00;98511.75;4971660;28;20223;-79
2023/05/10 04:50:02;;;;;;;4.87;2.70;;;;;;;12.70;100.00;98512.94;4962567;28;20200;-79
2023/05/10 04:52:30;;;;;;;3.60;2.93;;;;;;;12.72;100.00;98520.78;4971767;28;20210;-80
2023/05/10 04:54:59;;;;;;;3.60;3.07;;;;;;;12.87;100.00;98519.53;4965237;28;20208;-79
2023/05/10 04:57:27;;;;;;;4.83;3.20;;;;;;;13.06;100.00;98530.31;4971813;28;20202;-80
2023/05/10 04:59:56;;;;;;;5.27;3.30;;;;;;;12.92;100.00;98524.44;4970446;28;20203;-80
2023/05/10 05:02:32;;;;;;;4.40;2.77;;;;;;;12.93;100.00;98529.63;4968232;28;20231;-79
2023/05/10 05:05:00;;;;;;;6.60;2.80;;;;;;;12.94;100.00;98535.81;4966747;28;20203;-79
2023/05/10 05:07:30;;;;;;;2.93;2.63;;;;;;;12.95;100.00;98535.69;4925592;29;20228;-79
2023/05/10 05:09:58;;;;;;;6.13;3.17;;;;;;;13.19;100.00;98543.44;4933823;29;20677;-79
2023/05/10 05:12:26;;;;;;;3.33;2.83;;;;;;;13.07;100.00;98545.28;4930174;29;20222;-79
2023/05/10 05:14:54;;;;;;;4.90;2.60;;;;;;;13.01;100.00;98550.25;4930847;29;20217;-80
2023/05/10 05:17:23;;;;;;;3.17;2.70;;;;;;;13.13;100.00;98551.91;4931313;29;20201;-79
2023/05/10 05:19:54;;;;;;;3.30;3.00;;;;;;;13.11;100.00;98565.31;4929627;29;20251;-79
2023/05/10 05:22:27;;;;;;;4.50;2.60;;;;;;;13.01;100.00;98560.88;4926358;29;20309;-79
2023/05/10 05:24:55;;;;;;;4.30;3.20;;;;;;;13.10;100.00;98560.97;4936089;28;20223;-79
2023/05/10 05:27:25;;;;;;;3.63;3.13;;;;;;;13.10;100.00;98565.44;4973976;28;20271;-79
2023/05/10 05:29:54;;;;;;;3.57;2.83;;;;;;;13.22;100.00;98564.47;4974089;28;20274;-79
2023/05/10 05:32:22;;;;;;;5.83;3.03;;;;;;;13.17;100.00;98558.63;4967871;28;20200;-80
2023/05/10 05:34:53;;;;;;;3.70;3.00;;;;;;;13.15;100.00;98563.25;4966023;28;20207;-79
2023/05/10 05:37:22;;;;;;;3.10;2.80;;;;;;;13.09;100.00;98564.59;4967512;28;20254;-79
2023/05/10 05:39:51;;;;;;;3.40;2.37;;;;;;;13.20;100.00;98562.88;4974027;28;20278;-79
2023/05/10 05:42:19;;;;;;;2.93;2.13;;;;;;;13.10;100.00;98562.78;4968737;28;20215;-79
2023/05/10 05:44:48;;;;;;;2.60;1.93;;;;;;;13.02;100.00;98574.03;4966990;28;20242;-79
2023/05/10 05:47:17;;;;;;;2.00;1.80;;;;;;;13.24;100.00;98565.16;4968711;28;20758;-80
2023/05/10 05:49:46;;;;;;;3.50;1.80;;;;;;;13.18;100.00;98566.47;4965552;28;20203;-79
2023/05/10 05:52:15;;;;;;;2.37;1.80;;;;;;;13.33;100.00;98568.88;4970402;28;20674;-79
2023/05/10 05:54:44;;;;;;;4.03;1.80;;;;;;;13.30;100.00;98566.44;4970500;28;20266;-79
2023/05/10 05:57:12;;;;;;;1.83;1.60;;;;;;;13.25;100.00;98563.34;4964932;28;20204;-79
2023/05/10 05:59:43;;;;;;;1.90;1.70;;;;;;;13.21;100.00;98559.25;4966209;28;20266;-79
2023/05/10 06:02:12;;;;;;;4.17;1.90;;;;;;;13.33;100.00;98555.56;4968609;28;20298;-79
2023/05/10 06:04:40;;;;;;;2.87;1.70;;;;;;;13.50;100.00;98560.28;4964609;28;20200;-79
2023/05/10 06:07:11;;;;;;;4.33;1.90;;;;;;;13.46;100.00;98559.69;4967729;28;20228;-79
2023/05/10 06:09:41;;;;;;;2.87;1.90;;;;;;;13.56;100.00;98569.56;4968639;28;20187;-79
2023/05/10 06:12:12;;;;;;;1.80;1.60;;;;;;;13.49;100.00;98561.25;4962133;28;20207;-79
2023/05/10 06:14:40;;;;;;;3.67;1.60;;;;;;;13.70;100.00;98564.75;4964665;28;20188;-79
2023/05/10 06:17:08;;;;;;;2.53;1.77;;;;;;;13.78;100.00;98563.22;4970891;28;20670;-79
2023/05/10 06:19:36;;;;;;;2.87;1.70;;;;;;;13.72;100.00;98556.63;4966982;28;20204;-79
2023/05/10 06:22:05;;;;;;;2.13;1.50;;;;;;;13.67;100.00;98561.50;4967148;28;20261;-79
2023/05/10 06:24:34;;;;;;;3.20;1.60;;;;;;;13.70;100.00;98555.91;4972062;28;20204;-79
2023/05/10 06:27:04;;;;;;;1.53;1.43;;;;;;;13.71;100.00;98554.94;4971797;28;20224;-79
2023/05/10 06:29:33;;;;;;;1.30;1.20;;;;;;;13.83;100.00;98564.53;4971853;28;20188;-79
2023/05/10 06:32:03;;;;;;;2.07;1.30;;;;;;;13.48;100.00;98554.25;4970341;28;20199;-79
2023/05/10 06:34:31;;;;;;;3.00;1.97;;;;;;;13.55;100.00;98555.41;4965402;28;20278;-79
2023/05/10 06:36:59;;;;;;;2.47;1.60;;;;;;;13.52;100.00;98555.69;4972458;28;20208;-79
2023/05/10 06:39:29;;;;;;;2.87;1.50;;;;;;;13.58;100.00;98562.28;4976964;28;20206;-78
2023/05/10 06:41:57;;;;;;;1.77;1.67;;;;;;;13.92;100.00;98558.41;4969082;28;20715;-78
2023/05/10 06:44:27;;;;;;;1.70;1.60;;;;;;;13.90;100.00;98570.16;4970015;28;20255;-79
2023/05/10 06:46:56;;;;;;;3.27;1.27;;;;;;;13.94;100.00;98568.91;4966884;28;20224;-79
2023/05/10 06:49:24;;;;;;;1.77;1.30;;;;;;;13.75;100.00;98559.84;4975530;28;20263;-78
2023/05/10 06:51:52;;;;;;;1.20;1.10;;;;;;;13.77;100.00;98557.06;4976484;28;20351;-79
2023/05/10 06:54:21;;;;;;;1.37;1.27;;;;;;;13.72;100.00;98562.78;4965483;28;20188;-79
2023/05/10 06:56:49;;;;;;;3.67;1.50;;;;;;;13.87;100.00;98563.25;4971348;28;20203;-79
2023/05/10 06:59:19;;;;;;;2.20;1.37;;;;;;;13.63;100.00;98566.25;4971333;28;20196;-78
2023/05/10 07:01:49;;;;;;;3.47;1.50;;;;;;;13.57;100.00;98561.44;4914106;29;20382;-79
2023/05/10 07:04:19;;;;;;;1.90;1.30;;;;;;;13.88;100.00;98575.59;4909501;29;20721;-79
2023/05/10 07:06:47;;;;;;;1.50;1.30;;;;;;;13.71;100.00;98569.09;4911861;29;20665;-79
2023/05/10 07:09:16;;;;;;;2.20;1.20;;;;;;;13.49;100.00;98571.06;4914278;29;20201;-79
2023/05/10 07:11:44;;;;;;;1.93;1.20;;;;;;;13.80;100.00;98575.44;4912878;29;20206;-79
2023/05/10 07:14:12;;;;;;;1.47;1.33;;;;;;;13.90;100.00;98575.50;4911858;29;20209;-80
2023/05/10 07:16:42;;;;;;;1.23;1.13;;;;;;;13.78;100.00;98584.50;4914027;29;20214;-79
2023/05/10 07:19:12;;;;;;;3.07;1.50;;;;;;;14.10;100.00;98585.25;4922908;28;20206;-79
2023/05/10 07:21:43;;;;;;;4.13;1.40;;;;;;;14.12;100.00;98582.44;4968085;28;20203;-79
2023/05/10 07:24:11;;;;;;;4.83;2.00;;;;;;;14.26;100.00;98582.91;4973915;28;20199;-79
2023/05/10 07:26:40;;;;;;;2.33;1.70;;;;;;;14.60;100.00;98582.59;4967149;28;20266;-79
2023/05/10 07:29:08;;;;;;;2.13;1.90;;;;;;;14.13;100.00;98584.13;4976148;28;20227;-80
2023/05/10 07:31:37;;;;;;;6.40;3.63;;;;;;;14.25;100.00;98581.22;4975914;28;20200;-79
2023/05/10 07:34:05;;;;;;;2.10;1.90;;;;;;;14.14;100.00;98575.16;4968888;28;20204;-78
2023/05/10 07:36:36;;;;;;;3.00;1.40;;;;;;;14.19;100.00;98587.09;4969027;28;20188;-79
2023/05/10 07:39:05;;;;;;;3.40;1.80;;;;;;;14.32;100.00;98581.53;4968055;28;20236;-80
2023/05/10 07:41:33;;;;;;;2.87;2.13;;;;;;;14.43;100.00;98577.91;4971846;28;20199;-79
2023/05/10 07:44:03;;;;;;;2.07;1.70;;;;;;;14.37;100.00;98576.59;4970092;28;20192;-78
2023/05/10 07:46:31;;;;;;;2.57;1.73;;;;;;;14.35;100.00;98583.91;4968845;28;20207;-78
2023/05/10 07:49:00;;;;;;;2.93;2.50;;;;;;;14.41;100.00;98575.38;4970755;28;20219;-79
2023/05/10 07:51:28;;;;;;;3.90;3.33;;;;;;;14.42;100.00;98574.38;4965486;28;20204;-78
2023/05/10 07:53:58;;;;;;;1.90;1.47;;;;;;;14.55;100.00;98576.81;4968829;28;20224;-79
2023/05/10 07:56:29;;;;;;;2.27;2.07;;;;;;;14.69;100.00;98578.28;4969915;28;20208;-78
2023/05/10 07:58:58;;;;;;;1.73;1.60;;;;;;;14.68;100.00;98581.91;4975413;28;20227;-79
2023/05/10 08:01:27;;;;;;;2.67;1.50;;;;;;;14.74;100.00;98576.84;4975236;28;20293;-79
2023/05/10 08:03:55;;;;;;;3.03;2.20;;;;;;;14.59;100.00;98580.91;4974060;28;20214;-79
2023/05/10 08:06:26;;;;;;;2.40;1.63;;;;;;;14.61;100.00;98584.28;4969330;28;20200;-79
2023/05/10 08:08:55;;;;;;;2.30;1.70;;;;;;;14.77;100.00;98583.75;4968645;28;20294;-79
2023/05/10 08:11:27;;;;;;;2.87;2.53;;;;;;;14.66;100.00;98579.38;4967734;28;20203;-79
2023/05/10 08:13:55;;;;;;;4.23;2.07;;;;;;;14.66;100.00;98574.03;4975205;28;20202;-78
2023/05/10 08:16:23;;;;;;;2.10;1.67;;;;;;;14.93;100.00;98569.84;4969941;28;20208;-79
2023/05/10 08:18:52;;;;;;;3.00;1.80;;;;;;;15.10;100.00;98571.81;4970123;28;20192;-79
2023/05/10 08:21:20;;;;;;;2.37;1.90;;;;;;;15.03;100.00;98578.69;4968831;28;20231;-79
2023/05/10 08:23:51;;;;;;;2.17;1.93;;;;;;;14.76;100.00;98566.03;4967281;28;20212;-79
2023/05/10 08:26:20;;;;;;;2.87;1.80;;;;;;;14.66;100.00;98575.84;4967224;28;20204;-79
2023/05/10 08:28:50;;;;;;;3.03;2.13;;;;;;;15.02;100.00;98567.19;4971180;28;20242;-79
2023/05/10 08:31:19;;;;;;;1.87;1.70;;;;;;;15.26;100.00;98565.94;4966382;28;20203;-79
2023/05/10 08:33:47;;;;;;;2.30;1.80;;;;;;;15.33;100.00;98570.53;4969595;28;20204;-79
2023/05/10 08:36:19;;;;;;;2.87;2.57;;;;;;;15.09;100.00;98565.66;4966934;28;20278;-79
2023/05/10 08:38:47;;;;;;;2.97;1.80;;;;;;;15.12;100.00;98564.50;4963855;28;20246;-79
2023/05/10 08:41:18;;;;;;;3.90;1.60;;;;;;;15.57;100.00;98567.41;4972175;28;20200;-79
2023/05/10 08:43:46;;;;;;;4.13;1.97;;;;;;;15.43;100.00;98567.84;4971736;28;20238;-79
2023/05/10 08:46:19;;;;;;;1.80;1.60;;;;;;;15.91;100.00;98566.91;4966567;28;20203;-79
2023/05/10 08:48:49;;;;;;;1.83;1.73;;;;;;;15.46;100.00;98567.56;4965646;28;20630;-79
2023/05/10 08:51:21;;;;;;;2.50;1.77;;;;;;;15.65;100.00;98574.72;4974648;28;20605;-79
2023/05/10 08:53:49;;;;;;;2.00;1.70;;;;;;;15.73;100.00;98578.34;4968408;28;20250;-80
2023/05/10 08:56:19;;;;;;;3.37;2.10;;;;;;;15.38;100.00;98570.13;4964171;28;20232;-79
2023/05/10 08:58:48;;;;;;;2.80;1.60;;;;;;;15.73;100.00;98572.19;4974383;28;20196;-79
2023/05/10 09:01:20;;;;;;;1.70;1.60;;;;;;;15.43;100.00;98574.00;4971376;28;20231;-79
2023/05/10 09:03:51;;;;;;;2.40;1.57;;;;;;;15.32;100.00;98579.50;4966521;28;20200;-79
2023/05/10 09:06:20;;;;;;;1.90;1.70;;;;;;;15.36;100.00;98578.25;4966743;28;20215;-79
2023/05/10 09:08:49;;;;;;;3.80;1.60;;;;;;;15.59;100.00;98586.78;4971712;28;20219;-80
2023/05/10 09:11:18;;;;;;;2.87;1.73;;;;;;;15.68;100.00;98585.09;4974270;28;20246;-79
2023/05/10 09:13:47;;;;;;;3.00;1.70;;;;;;;16.02;100.00;98588.09;4971087;28;20259;-80
2023/05/10 09:16:15;;;;;;;2.10;1.90;;;;;;;15.78;100.00;98591.25;4970764;28;20215;-80
2023/05/10 09:18:50;;;;;;;5.10;2.00;;;;;;;16.01;100.00;98589.91;4966898;28;20355;-80
2023/05/10 09:21:20;;;;;;;2.20;1.90;;;;;;;15.83;100.00;98599.69;4974328;28;20351;-79
2023/05/10 09:23:49;;;;;;;2.23;1.80;;;;;;;15.88;100.00;98600.09;4974897;28;20195;-79
2023/05/10 09:26:18;;;;;;;5.03;2.10;;;;;;;15.84;100.00;98606.72;4971203;28;20215;-79
2023/05/10 09:28:55;;;;;;;1.60;1.37;;;;;;;15.41;100.00;98617.84;4971244;28;20274;-79
2023/05/10 09:31:24;;;;;;;2.67;1.97;;;;;;;15.06;100.00;98616.63;4966475;28;20191;-79
2023/05/10 09:33:57;;;;;;;3.27;1.87;;;;;;;14.73;100.00;98628.50;4964932;28;20203;-79
2023/05/10 09:36:26;;;;;;;2.60;2.40;;;;;;;14.82;100.00;98632.16;4964036;28;20207;-79
2023/05/10 09:38:56;;;;;;;6.03;2.30;;;;;;;14.70;100.00;98634.09;4973958;28;20192;-80
2023/05/10 09:41:25;;;;;;;4.03;2.43;;;;;;;14.67;100.00;98641.50;4968594;28;20211;-79
2023/05/10 09:43:57;;;;;;;3.27;2.20;;;;;;;14.55;100.00;98644.28;4970528;28;20207;-80
2023/05/10 09:46:25;;;;;;;4.07;2.70;;;;;;;14.63;100.00;98648.94;4964234;28;20200;-80
2023/05/10 09:48:54;;;;;;;4.30;2.50;;;;;;;14.58;100.00;98661.84;4929671;29;20249;-80
2023/05/10 09:51:26;;;;;;;7.03;5.93;;;;;;;14.55;100.00;98665.63;4929146;29;20201;-79
2023/05/10 09:54:10;;;;;;;3.83;2.40;;;;;;;14.64;100.00;98663.13;4933377;29;20198;-79
2023/05/10 09:56:40;;;;;;;4.27;3.43;;;;;;;14.50;100.00;98667.03;4926142;29;20698;-79
2023/05/10 09:59:10;;;;;;;5.10;2.70;;;;;;;14.91;100.00;98658.00;4932266;29;20703;-79
2023/05/10 10:01:40;;;;;;;5.07;2.70;;;;;;;14.89;100.00;98666.13;4934666;29;20233;-79
2023/05/10 10:04:10;;;;;;;2.93;2.33;;;;;;;14.92;100.00;98662.34;4932361;29;20292;-79
2023/05/10 10:06:41;;;;;;;2.90;2.30;;;;;;;15.15;100.00;98650.47;4946736;28;20199;-79
2023/05/10 10:09:10;;;;;;;2.60;2.00;;;;;;;15.32;100.00;98648.06;4969251;28;20226;-79
2023/05/10 10:11:41;;;;;;;2.67;2.10;;;;;;;15.47;100.00;98649.31;4972216;28;20192;-79
2023/05/10 10:14:09;;;;;;;2.20;1.90;;;;;;;14.87;100.00;98646.78;4967434;28;20214;-79
2023/05/10 10:16:38;;;;;;;1.87;1.70;;;;;;;15.17;100.00;98656.50;4965086;28;20278;-79
2023/05/10 10:19:23;;;;;;;4.47;1.60;;;;;;;15.51;100.00;98661.38;4976208;28;20199;-79
2023/05/10 10:21:53;;;;;;;1.73;1.27;;;;;;;15.31;100.00;98657.88;4971214;28;20288;-79
2023/05/10 10:24:21;;;;;;;2.40;1.53;;;;;;;15.26;100.00;98656.63;4974579;28;20651;-79
2023/05/10 10:26:53;;;;;;;3.93;2.07;;;;;;;15.45;100.00;98660.16;4967963;28;20204;-79
2023/05/10 10:29:27;;;;;;;1.97;1.60;;;;;;;15.14;100.00;98655.91;4968914;28;20251;-79
2023/05/10 10:32:07;;;;;;;1.47;1.37;;;;;;;15.38;100.00;98650.16;4969541;28;20655;-80
2023/05/10 10:34:37;;;;;;;2.17;1.70;;;;;;;15.48;100.00;98643.00;4971480;28;20250;-80
2023/05/10 10:37:09;;;;;;;2.73;1.70;;;;;;;15.36;100.00;98649.47;4930584;29;20193;-80
2023/05/10 10:39:39;;;;;;;2.00;1.80;;;;;;;15.45;100.00;98646.81;4928903;29;20201;-79
2023/05/10 10:42:08;;;;;;;1.90;1.60;;;;;;;15.56;100.00;98637.78;4930346;29;20673;-79
2023/05/10 10:44:45;;;;;;;2.10;1.77;;;;;;;15.67;100.00;98639.50;4930806;29;20300;-79
2023/05/10 10:47:32;;;;;;;5.13;1.60;;;;;;;15.69;100.00;98637.53;4932651;29;20205;-79
2023/05/10 10:50:05;;;;;;;3.13;1.60;;;;;;;15.97;100.00;98636.63;4926814;29;20232;-80
2023/05/10 10:52:36;;;;;;;3.53;1.63;;;;;;;15.76;100.00;98630.63;4927306;29;20316;-80
2023/05/10 10:55:08;;;;;;;6.57;4.63;;;;;;;15.37;100.00;98637.81;4928920;29;20205;-80
2023/05/10 10:57:46;;;;;;;3.07;1.90;;;;;;;15.57;100.00;98639.47;4930431;29;20305;-80
2023/05/10 11:00:30;;;;;;;2.90;2.00;;;;;;;15.81;100.00;98638.19;4923284;29;20201;-80
2023/05/10 11:03:00;;;;;;;2.47;2.20;;;;;;;15.76;100.00;98633.28;4861009;29;20220;-80
2023/05/10 11:05:46;;;;;;;3.20;2.90;;;;;;;16.15;100.00;98628.69;4853009;29;20200;-80
2023/05/10 11:08:18;;;;;;;3.20;2.50;;;;;;;16.35;100.00;98631.28;4870413;29;20717;-79
2023/05/10 11:10:52;;;;;;;2.83;2.53;;;;;;;16.70;100.00;98631.41;4894736;29;20233;-80
2023/05/10 11:13:31;;;;;;;4.23;2.40;;;;;;;16.84;100.00;98624.69;4897660;29;20202;-79
2023/05/10 11:16:00;;;;;;;2.67;2.47;;;;;;;17.10;100.00;98617.63;4891921;29;20202;-79
2023/05/10 11:18:30;;;;;;;2.97;2.33;;;;;;;16.93;100.00;98621.13;4891512;29;20250;-80
2023/05/10 11:21:02;;;;;;;3.33;3.03;;;;;;;17.09;100.00;98607.91;4929865;28;20455;-79
2023/05/10 11:23:33;;;;;;;3.77;2.90;;;;;;;17.44;100.00;98617.72;4976310;28;20192;-79
2023/05/10 11:26:01;;;;;;;4.30;3.53;;;;;;;16.86;100.00;98620.88;4968556;28;20251;-80
2023/05/10 11:28:30;;;;;;;4.50;4.10;;;;;;;16.99;100.00;98611.66;4976095;28;20195;-79
2023/05/10 11:30:58;;;;;;;5.70;3.53;;;;;;;17.66;100.00;98613.75;4972158;28;20690;-79
2023/05/10 11:33:27;;;;;;;4.20;3.77;;;;;;;17.33;100.00;98619.81;4969313;28;20207;-79
2023/05/10 11:35:55;;;;;;;4.47;3.60;;;;;;;16.28;100.00;98623.84;4968504;28;20208;-79
2023/05/10 11:38:23;;;;;;;3.50;2.60;;;;;;;16.36;100.00;98628.44;4966085;28;20215;-79
2023/05/10 11:40:54;;;;;;;2.90;2.43;;;;;;;16.46;100.00;98623.06;4969525;28;20199;-79